Weather at Hatay Airport

Public forecast

Using degrees Celsius for public forecast. Weather courtesy of forecast.io.

Current aviation weather report (METAR) for Hatay Airport

2024/05/25 03:50 (retrieved 1 hour ago)

LTDA 250350Z VRB02KT 9999 BKN035 19/15 Q1006 NOSIG

Closest aviation forecast (TAF) to Hatay Airport

Forecast is more than 12 hours old.

Closest forecast is Hmeimim Air Base, 60.0 nm (111.1 km) SSW.

2024/05/24 06:36 (retrieved 22 hours ago)

TAF OSLK 240400Z 2406/2506 21015G30KT 4000 -TSSHRA SCT025 CB BKN030 OVC100